Time;durP1;ratioP1;P1;durP2;ratioP2;P2;SDS_P1;SDS_P2;PMS_P1;PMS_P2;Temp;Humidity;BMP_temperature;BMP_pressure;BME280_temperature;BME280_humidity;BME280_pressure;Samples;Min_cycle;Max_cycle;Signal;HPM_P1;HPM_P2
2021/06/23 00:00:01;;;;;;;10.07;9.63;;;25.50;97.70;;;;;;3616835;39;20529;-65
2021/06/23 00:02:28;;;;;;;8.97;8.60;;;25.50;97.80;;;;;;3616863;39;20584;-65
2021/06/23 00:04:55;;;;;;;9.03;8.73;;;25.50;97.80;;;;;;3616807;39;20526;-65
2021/06/23 00:07:22;;;;;;;10.50;9.70;;;25.50;97.80;;;;;;3615394;39;20471;-65
2021/06/23 00:09:49;;;;;;;9.57;8.90;;;25.50;97.80;;;;;;3615038;39;20471;-65
2021/06/23 00:12:16;;;;;;;10.43;10.03;;;25.50;97.80;;;;;;3615469;39;20509;-65
2021/06/23 00:14:45;;;;;;;9.53;9.10;;;25.50;97.80;;;;;;3615711;39;20533;-65
2021/06/23 00:17:12;;;;;;;9.30;8.80;;;25.50;97.80;;;;;;3616239;39;20486;-65
2021/06/23 00:19:39;;;;;;;9.23;8.73;;;25.50;97.90;;;;;;3615238;39;20522;-65
2021/06/23 00:22:06;;;;;;;9.57;9.10;;;25.50;97.90;;;;;;3616345;39;20483;-65
2021/06/23 00:24:34;;;;;;;9.90;9.30;;;25.60;97.90;;;;;;3616123;39;20511;-65
2021/06/23 00:27:01;;;;;;;9.80;9.20;;;25.50;97.90;;;;;;3616862;39;20540;-65
2021/06/23 00:29:28;;;;;;;9.47;9.07;;;25.60;97.90;;;;;;3616196;39;20481;-65
2021/06/23 00:31:58;;;;;;;10.70;10.10;;;25.50;97.90;;;;;;3615845;39;20475;-65
2021/06/23 00:34:29;;;;;;;9.50;9.20;;;25.60;97.90;;;;;;3616918;39;20733;-65
2021/06/23 00:36:56;;;;;;;10.17;9.67;;;25.60;97.90;;;;;;3616338;39;20479;-65
2021/06/23 00:39:23;;;;;;;9.53;9.13;;;25.60;97.90;;;;;;3615285;39;20523;-65
2021/06/23 00:41:50;;;;;;;10.30;9.80;;;25.60;97.90;;;;;;3615187;39;20494;-65
2021/06/23 00:44:19;;;;;;;9.57;9.20;;;25.60;97.90;;;;;;3616067;39;20479;-65
2021/06/23 00:46:46;;;;;;;10.63;10.03;;;25.60;97.90;;;;;;3616514;39;20494;-65
2021/06/23 00:49:15;;;;;;;10.57;10.00;;;25.60;97.90;;;;;;3607205;39;20483;-65
2021/06/23 00:52:00;;;;;;;10.50;10.00;;;25.60;97.90;;;;;;3606566;39;20865;-65
2021/06/23 00:54:49;;;;;;;9.47;9.03;;;25.60;97.90;;;;;;3616355;39;20472;-65
2021/06/23 00:57:18;;;;;;;10.40;9.90;;;25.60;97.90;;;;;;3607142;39;20522;-65
2021/06/23 00:59:50;;;;;;;12.00;11.03;;;25.60;97.90;;;;;;3615771;39;20499;-65
2021/06/23 01:02:20;;;;;;;10.43;9.83;;;25.60;97.90;;;;;;3606039;39;20490;-65
2021/06/23 01:04:51;;;;;;;10.50;10.00;;;25.60;97.90;;;;;;3605451;39;20479;-65
2021/06/23 01:07:21;;;;;;;10.17;9.40;;;25.60;97.90;;;;;;3615156;39;20523;-65
2021/06/23 01:09:55;;;;;;;10.20;9.50;;;25.60;97.90;;;;;;3605925;39;20546;-65
2021/06/23 01:12:46;;;;;;;9.97;9.47;;;25.60;97.90;;;;;;3606442;39;20772;-65
2021/06/23 01:15:15;;;;;;;10.30;9.73;;;25.60;98.00;;;;;;3616094;39;20515;-65
2021/06/23 01:17:44;;;;;;;9.43;8.93;;;25.60;98.00;;;;;;3616145;39;20491;-65
2021/06/23 01:20:13;;;;;;;10.30;9.50;;;25.60;98.00;;;;;;3615681;39;20489;-65
2021/06/23 01:22:45;;;;;;;10.30;9.90;;;25.60;98.00;;;;;;3606588;39;20517;-65
2021/06/23 01:25:15;;;;;;;10.33;9.90;;;25.60;98.00;;;;;;3615232;39;20487;-65
2021/06/23 01:27:46;;;;;;;9.70;9.30;;;25.60;97.90;;;;;;3614735;39;20474;-65
2021/06/23 01:30:15;;;;;;;10.20;9.70;;;25.60;98.00;;;;;;3606776;39;20487;-65
2021/06/23 01:33:05;;;;;;;10.27;9.77;;;25.60;98.00;;;;;;3614720;39;20488;-65
2021/06/23 01:35:34;;;;;;;9.77;9.30;;;25.60;97.90;;;;;;3606749;39;20487;-65
2021/06/23 01:38:04;;;;;;;9.80;9.30;;;25.60;97.90;;;;;;3615941;39;20491;-65
2021/06/23 01:40:32;;;;;;;9.87;9.40;;;25.60;98.00;;;;;;3605691;39;20496;-65
2021/06/23 01:42:59;;;;;;;9.90;9.40;;;25.60;98.00;;;;;;3615217;39;21127;-65
2021/06/23 01:45:28;;;;;;;10.37;9.87;;;25.60;98.30;;;;;;3606188;39;20474;-65
2021/06/23 01:47:58;;;;;;;9.37;8.90;;;25.60;98.00;;;;;;3606584;39;20468;-65
2021/06/23 01:50:25;;;;;;;9.80;9.33;;;25.60;98.00;;;;;;3605951;39;20474;-65
2021/06/23 01:52:57;;;;;;;10.57;9.97;;;25.60;98.00;;;;;;3615417;39;20591;-65
2021/06/23 01:55:28;;;;;;;9.70;9.30;;;25.60;98.00;;;;;;3615068;39;20494;-65
2021/06/23 01:58:00;;;;;;;10.07;9.57;;;25.60;98.00;;;;;;3615001;39;20529;-65
2021/06/23 02:00:41;;;;;;;10.50;9.67;;;25.70;98.10;;;;;;3605548;39;20491;-65
2021/06/23 02:03:17;;;;;;;10.00;9.50;;;25.60;98.00;;;;;;3614250;39;20477;-65
2021/06/23 02:05:55;;;;;;;10.80;10.20;;;25.60;98.00;;;;;;3615412;39;20471;-65
2021/06/23 02:08:46;;;;;;;10.83;10.33;;;25.60;98.00;;;;;;3606116;39;20491;-65
2021/06/23 02:11:32;;;;;;;10.40;9.90;;;25.60;98.00;;;;;;3614991;39;20495;-65
2021/06/23 02:14:35;;;;;;;10.73;10.13;;;25.60;98.00;;;;;;3606095;39;20592;-65
2021/06/23 02:17:15;;;;;;;10.77;10.17;;;25.60;97.90;;;;;;3615908;39;20481;-65
2021/06/23 02:19:50;;;;;;;10.57;9.97;;;25.60;97.90;;;;;;3606050;39;20873;-65
2021/06/23 02:22:23;;;;;;;10.50;10.00;;;25.60;97.90;;;;;;3615175;39;20467;-65
2021/06/23 02:25:04;;;;;;;10.10;9.60;;;25.60;97.90;;;;;;3606179;39;20993;-65
2021/06/23 02:27:40;;;;;;;10.80;10.30;;;25.60;97.90;;;;;;3606113;39;20503;-65
2021/06/23 02:30:12;;;;;;;10.60;10.10;;;25.60;97.80;;;;;;3615076;39;20515;-65
2021/06/23 02:32:45;;;;;;;10.90;10.50;;;25.60;97.80;;;;;;3606120;39;20466;-65
2021/06/23 02:35:13;;;;;;;10.87;10.37;;;25.70;97.90;;;;;;3606273;39;20534;-65
2021/06/23 02:37:48;;;;;;;10.57;10.17;;;25.60;97.90;;;;;;3607020;39;21016;-65
2021/06/23 02:40:17;;;;;;;10.50;10.10;;;25.60;97.80;;;;;;3605540;39;20479;-65
2021/06/23 02:42:54;;;;;;;10.30;9.90;;;25.60;97.80;;;;;;3616134;39;20525;-65
2021/06/23 02:45:24;;;;;;;10.80;10.30;;;25.60;97.80;;;;;;3606007;39;20567;-65
2021/06/23 02:47:51;;;;;;;11.67;11.07;;;25.60;97.80;;;;;;3615466;39;20552;-65
2021/06/23 02:50:43;;;;;;;10.80;10.30;;;25.60;97.80;;;;;;3614504;39;20479;-65
2021/06/23 02:53:22;;;;;;;10.67;10.17;;;25.60;97.90;;;;;;3614572;39;20479;-65
2021/06/23 02:55:50;;;;;;;10.10;9.80;;;25.60;98.10;;;;;;3615084;39;20869;-65
2021/06/23 02:58:20;;;;;;;10.00;9.60;;;25.60;97.80;;;;;;3615236;39;20479;-65
2021/06/23 03:00:48;;;;;;;10.80;10.30;;;25.60;97.90;;;;;;3614101;39;21092;-65
2021/06/23 03:03:16;;;;;;;9.60;9.20;;;25.60;97.80;;;;;;3614751;39;20480;-65
2021/06/23 03:05:43;;;;;;;11.20;10.80;;;25.60;97.80;;;;;;3606677;39;20903;-65
2021/06/23 03:08:11;;;;;;;11.50;10.73;;;25.60;98.10;;;;;;3616096;39;20511;-65
2021/06/23 03:10:45;;;;;;;11.30;10.53;;;25.70;97.90;;;;;;3616756;39;21066;-65
2021/06/23 03:13:36;;;;;;;10.50;10.10;;;25.60;97.80;;;;;;3615886;39;21151;-65
2021/06/23 03:16:20;;;;;;;11.67;11.17;;;25.70;97.90;;;;;;3599638;39;20479;-65
2021/06/23 03:18:47;;;;;;;12.27;11.57;;;25.60;97.90;;;;;;3615994;39;20491;-65
2021/06/23 03:21:15;;;;;;;11.97;11.43;;;25.60;97.90;;;;;;3615760;39;20931;-65
2021/06/23 03:23:47;;;;;;;11.30;10.80;;;25.60;97.90;;;;;;3607603;39;20464;-65
2021/06/23 03:26:16;;;;;;;11.40;10.93;;;25.60;98.00;;;;;;3616109;39;21117;-65
2021/06/23 03:28:45;;;;;;;12.50;12.00;;;25.60;97.90;;;;;;3616249;39;20498;-65
2021/06/23 03:31:12;;;;;;;12.47;11.97;;;25.60;97.90;;;;;;3606914;39;21039;-65
2021/06/23 03:33:40;;;;;;;12.03;11.57;;;25.60;97.80;;;;;;3616087;39;20487;-65
2021/06/23 03:36:33;;;;;;;11.90;11.40;;;25.60;97.80;;;;;;3613461;39;21048;-65
2021/06/23 03:39:01;;;;;;;12.50;12.00;;;25.70;97.80;;;;;;3606493;39;20943;-65
2021/06/23 03:41:39;;;;;;;11.30;10.70;;;25.60;97.70;;;;;;3606116;39;20563;-65
2021/06/23 03:44:08;;;;;;;11.87;11.13;;;25.60;97.70;;;;;;3607492;39;20475;-65
2021/06/23 03:46:36;;;;;;;11.90;11.40;;;25.60;97.60;;;;;;3616318;39;21122;-65
2021/06/23 03:49:03;;;;;;;10.80;10.30;;;25.60;97.60;;;;;;3606695;39;20512;-65
2021/06/23 03:51:35;;;;;;;12.30;11.80;;;25.60;97.60;;;;;;3606418;39;20516;-65
2021/06/23 03:54:02;;;;;;;12.07;11.57;;;25.60;97.50;;;;;;3616183;39;20829;-65
2021/06/23 03:56:30;;;;;;;12.90;12.20;;;25.70;97.50;;;;;;3614715;39;20475;-65
2021/06/23 03:58:58;;;;;;;11.27;10.87;;;25.60;97.50;;;;;;3605668;39;20821;-65
2021/06/23 04:01:27;;;;;;;11.43;10.90;;;25.60;97.40;;;;;;3605817;39;20520;-65
2021/06/23 04:04:14;;;;;;;11.50;11.00;;;25.70;97.40;;;;;;3614330;39;20863;-65
2021/06/23 04:06:52;;;;;;;12.07;11.37;;;25.60;97.30;;;;;;3614902;39;20482;-65
2021/06/23 04:09:21;;;;;;;12.57;12.07;;;25.60;97.30;;;;;;3605592;39;20873;-65
2021/06/23 04:11:54;;;;;;;15.83;13.20;;;25.60;97.30;;;;;;3604981;39;20484;-65
2021/06/23 04:14:22;;;;;;;11.57;11.17;;;25.60;97.30;;;;;;3606530;39;20479;-65
2021/06/23 04:16:55;;;;;;;12.90;12.20;;;25.60;97.20;;;;;;3614782;39;20506;-65
2021/06/23 04:19:24;;;;;;;12.43;11.93;;;25.60;97.20;;;;;;3615429;39;20523;-65
2021/06/23 04:21:56;;;;;;;11.97;11.47;;;25.60;97.20;;;;;;3605948;39;20479;-65
2021/06/23 04:24:23;;;;;;;12.20;11.70;;;25.60;97.20;;;;;;3614762;39;20583;-65
2021/06/23 04:26:51;;;;;;;12.97;12.17;;;25.60;97.20;;;;;;3613980;39;20517;-65
2021/06/23 04:29:20;;;;;;;13.20;12.40;;;25.60;97.20;;;;;;3612733;39;20479;-65
2021/06/23 04:31:50;;;;;;;13.27;12.77;;;25.60;97.20;;;;;;3603548;39;20474;-65
2021/06/23 04:34:20;;;;;;;12.37;11.97;;;25.60;97.20;;;;;;3603121;39;20477;-65
2021/06/23 04:36:51;;;;;;;13.43;12.63;;;25.60;97.20;;;;;;3602714;39;20571;-65
2021/06/23 04:39:19;;;;;;;13.73;13.03;;;25.60;97.10;;;;;;3612837;39;20479;-65
2021/06/23 04:42:07;;;;;;;12.53;12.00;;;25.60;97.10;;;;;;3612712;39;20483;-65
2021/06/23 04:44:36;;;;;;;12.00;11.60;;;25.60;97.10;;;;;;3603677;39;20885;-65
2021/06/23 04:47:05;;;;;;;11.80;11.40;;;25.70;97.10;;;;;;3603299;39;20475;-65
2021/06/23 04:49:33;;;;;;;12.47;12.07;;;25.60;97.10;;;;;;3594580;39;20479;-65
2021/06/23 04:52:15;;;;;;;12.77;12.27;;;25.60;97.10;;;;;;3602024;39;20701;-65
2021/06/23 04:54:43;;;;;;;12.10;11.60;;;25.70;97.10;;;;;;3611654;39;20475;-65
2021/06/23 04:57:10;;;;;;;12.40;12.00;;;25.70;97.10;;;;;;3611329;39;20854;-65
2021/06/23 04:59:37;;;;;;;12.20;11.70;;;25.70;97.10;;;;;;3612065;39;20476;-65
2021/06/23 05:02:05;;;;;;;13.13;12.53;;;25.70;97.10;;;;;;3609525;39;20480;-65
2021/06/23 05:04:35;;;;;;;13.13;12.53;;;25.70;97.10;;;;;;3599497;39;20479;-65
2021/06/23 05:07:05;;;;;;;13.73;13.00;;;25.70;97.10;;;;;;3599305;39;20682;-65
2021/06/23 05:09:32;;;;;;;14.10;13.30;;;25.70;97.10;;;;;;3609331;39;21135;-66
2021/06/23 05:11:59;;;;;;;13.80;13.17;;;25.70;97.00;;;;;;3609030;39;20607;-66
2021/06/23 05:14:26;;;;;;;13.70;12.90;;;25.70;97.00;;;;;;3610530;39;20539;-66
2021/06/23 05:16:53;;;;;;;13.30;12.50;;;25.70;97.00;;;;;;3609460;39;20727;-66
2021/06/23 05:19:21;;;;;;;13.60;12.80;;;25.70;97.00;;;;;;3606466;39;20518;-66
2021/06/23 05:21:50;;;;;;;13.53;12.73;;;25.70;97.00;;;;;;3606080;39;20918;-66
2021/06/23 05:24:18;;;;;;;13.83;12.93;;;25.70;97.00;;;;;;3601173;39;20487;-66
2021/06/23 05:26:46;;;;;;;15.13;13.97;;;25.70;97.00;;;;;;3592872;39;20490;-65
2021/06/23 05:29:13;;;;;;;13.93;13.13;;;25.70;97.00;;;;;;3601563;39;20796;-66
2021/06/23 05:31:41;;;;;;;14.40;13.40;;;25.80;97.10;;;;;;3602844;39;20499;-65
2021/06/23 05:34:08;;;;;;;13.87;13.17;;;25.80;97.00;;;;;;3604481;39;20483;-66
2021/06/23 05:36:35;;;;;;;13.93;13.33;;;25.80;97.00;;;;;;3602049;39;20487;-66
2021/06/23 05:39:04;;;;;;;14.30;13.50;;;25.70;97.00;;;;;;3602093;39;20510;-66
2021/06/23 05:41:31;;;;;;;15.43;14.60;;;25.70;97.00;;;;;;3602338;39;21208;-66
2021/06/23 05:43:58;;;;;;;14.50;13.50;;;25.80;97.00;;;;;;3599290;39;20504;-66
2021/06/23 05:46:26;;;;;;;13.13;12.50;;;25.70;97.00;;;;;;3600951;39;20479;-65
2021/06/23 05:48:53;;;;;;;13.77;13.13;;;25.70;97.00;;;;;;3603115;39;20521;-66
2021/06/23 05:51:20;;;;;;;14.10;13.10;;;25.70;97.10;;;;;;3599861;39;20929;-66
2021/06/23 05:53:47;;;;;;;13.30;12.73;;;25.70;97.10;;;;;;3601469;39;20479;-66
2021/06/23 05:56:16;;;;;;;13.80;13.20;;;25.70;97.10;;;;;;3600273;39;20610;-66
2021/06/23 05:58:43;;;;;;;12.77;12.17;;;25.70;97.10;;;;;;3598162;39;20478;-66
2021/06/23 06:01:10;;;;;;;14.60;13.30;;;25.70;97.20;;;;;;3598003;39;20623;-66
2021/06/23 06:03:44;;;;;;;14.53;13.63;;;25.70;97.20;;;;;;3600433;39;20647;-65
2021/06/23 06:06:11;;;;;;;13.83;13.13;;;25.80;97.50;;;;;;3578869;39;20608;-65
2021/06/23 06:08:38;;;;;;;13.70;13.10;;;25.70;97.40;;;;;;3581656;39;20479;-65
2021/06/23 06:11:05;;;;;;;13.17;12.47;;;25.70;97.50;;;;;;3581261;39;20492;-65
2021/06/23 06:13:34;;;;;;;13.77;13.17;;;25.70;97.60;;;;;;3594383;39;20568;-65
2021/06/23 06:16:01;;;;;;;14.80;13.53;;;25.70;97.70;;;;;;3586462;39;20530;-65
2021/06/23 06:18:28;;;;;;;14.17;12.80;;;25.70;97.60;;;;;;3591247;39;20567;-65
2021/06/23 06:20:57;;;;;;;13.27;12.67;;;25.70;97.60;;;;;;3598090;39;20487;-65
2021/06/23 06:23:25;;;;;;;13.57;12.87;;;25.70;97.60;;;;;;3596293;39;21315;-65
2021/06/23 06:25:52;;;;;;;13.50;12.70;;;25.70;97.60;;;;;;3594217;39;20596;-65
2021/06/23 06:28:20;;;;;;;13.37;12.83;;;25.70;97.60;;;;;;3599312;39;20863;-64
2021/06/23 06:30:48;;;;;;;13.33;12.77;;;25.70;97.60;;;;;;3595177;39;21493;-65
2021/06/23 06:33:16;;;;;;;13.57;12.97;;;25.70;97.60;;;;;;3593852;39;20478;-65
2021/06/23 06:35:43;;;;;;;13.17;12.57;;;25.70;97.60;;;;;;3596190;39;20877;-65
2021/06/23 06:38:11;;;;;;;13.00;12.40;;;25.70;97.60;;;;;;3596240;39;20872;-65
2021/06/23 06:40:38;;;;;;;13.80;12.90;;;25.70;97.50;;;;;;3583210;39;20794;-65
2021/06/23 06:43:05;;;;;;;13.47;12.87;;;25.70;97.50;;;;;;3595286;39;20537;-65
2021/06/23 06:45:33;;;;;;;13.50;12.90;;;25.70;97.40;;;;;;3597557;39;20483;-65
2021/06/23 06:48:01;;;;;;;14.77;14.17;;;25.70;97.20;;;;;;3595745;39;20588;-65
2021/06/23 06:50:28;;;;;;;14.30;13.70;;;25.70;97.20;;;;;;3593764;39;20701;-65
2021/06/23 06:52:56;;;;;;;14.20;13.60;;;25.70;97.20;;;;;;3591722;39;20929;-65
2021/06/23 06:55:23;;;;;;;13.73;13.13;;;25.70;97.20;;;;;;3592718;39;20751;-65
2021/06/23 06:57:51;;;;;;;13.27;12.77;;;25.70;97.20;;;;;;3589762;39;20507;-65
2021/06/23 07:00:20;;;;;;;13.13;12.63;;;25.70;97.20;;;;;;3587873;39;20599;-65
2021/06/23 07:02:47;;;;;;;12.23;11.77;;;25.70;97.20;;;;;;3594354;39;20471;-65
2021/06/23 07:05:16;;;;;;;13.17;12.57;;;25.70;97.20;;;;;;3586694;39;20483;-65
2021/06/23 07:07:42;;;;;;;13.00;12.40;;;25.70;97.10;;;;;;3596976;39;20773;-65
2021/06/23 07:10:11;;;;;;;13.23;12.63;;;25.70;97.10;;;;;;3594218;39;20744;-65
2021/06/23 07:12:38;;;;;;;13.23;12.53;;;25.80;96.90;;;;;;3591580;39;20514;-65
2021/06/23 07:15:06;;;;;;;12.43;11.83;;;25.70;96.70;;;;;;3595206;39;20519;-65
2021/06/23 07:17:34;;;;;;;12.50;12.00;;;25.70;96.80;;;;;;3594397;39;20963;-65
2021/06/23 07:20:01;;;;;;;12.70;12.10;;;25.80;96.90;;;;;;3593325;39;20502;-65
2021/06/23 07:22:29;;;;;;;12.80;11.90;;;25.70;96.90;;;;;;3589663;39;20704;-65
2021/06/23 07:24:57;;;;;;;13.27;12.43;;;25.70;96.90;;;;;;3593904;39;21004;-65
2021/06/23 07:27:24;;;;;;;13.60;12.90;;;25.70;96.90;;;;;;3594731;39;20487;-65
2021/06/23 07:29:51;;;;;;;13.90;13.20;;;25.80;97.00;;;;;;3595006;39;20595;-65
2021/06/23 07:32:23;;;;;;;13.87;12.90;;;25.80;97.00;;;;;;3592401;39;20554;-65
2021/06/23 07:37:32;;;;;;;13.50;12.70;;;25.80;97.00;;;;;;3590544;39;20475;-64
2021/06/23 07:39:59;;;;;;;13.40;12.80;;;25.80;97.00;;;;;;3590161;39;20626;-65
2021/06/23 07:42:26;;;;;;;13.50;12.80;;;25.80;97.00;;;;;;3578505;39;20886;-64
2021/06/23 07:44:57;;;;;;;13.40;12.60;;;25.80;97.00;;;;;;3590532;39;20981;-65
2021/06/23 07:47:26;;;;;;;12.73;12.13;;;25.80;97.10;;;;;;3591575;39;20568;-65
2021/06/23 07:49:53;;;;;;;12.27;11.67;;;25.80;96.80;;;;;;3591713;39;20843;-65
2021/06/23 07:52:27;;;;;;;11.80;11.40;;;25.80;96.60;;;;;;3594319;39;20487;-65
2021/06/23 07:55:06;;;;;;;11.77;11.30;;;25.80;96.30;;;;;;3581474;39;20606;-65
2021/06/23 08:11:26;;;;;;;12.50;11.90;;;25.80;96.40;;;;;;3594205;39;20565;-64
2021/06/23 08:13:53;;;;;;;11.37;10.93;;;25.80;96.30;;;;;;3592036;39;20478;-64
2021/06/23 08:16:20;;;;;;;11.63;11.23;;;25.80;96.40;;;;;;3594464;39;21149;-64
2021/06/23 08:18:47;;;;;;;12.47;11.77;;;25.80;96.40;;;;;;3595351;39;20488;-64
2021/06/23 08:21:14;;;;;;;12.00;11.40;;;25.90;96.40;;;;;;3589324;39;20488;-64
2021/06/23 08:23:41;;;;;;;12.00;11.47;;;25.80;96.30;;;;;;3587757;39;21123;-64
2021/06/23 08:26:08;;;;;;;12.40;11.60;;;25.80;96.30;;;;;;3592776;39;20490;-64
2021/06/23 08:28:36;;;;;;;11.70;11.20;;;25.80;96.30;;;;;;3588404;39;20512;-64
2021/06/23 08:31:04;;;;;;;11.70;11.20;;;25.80;96.30;;;;;;3588821;39;20472;-64
2021/06/23 08:33:31;;;;;;;11.40;11.00;;;25.80;96.20;;;;;;3592797;39;20494;-64
2021/06/23 08:35:58;;;;;;;12.10;11.43;;;25.80;96.20;;;;;;3589844;39;20499;-64
2021/06/23 08:38:25;;;;;;;11.90;11.40;;;25.80;96.20;;;;;;3590079;39;20481;-64
2021/06/23 08:40:53;;;;;;;12.30;11.80;;;25.80;96.20;;;;;;3584772;39;20561;-64
2021/06/23 08:43:21;;;;;;;12.00;11.50;;;25.80;96.20;;;;;;3589971;39;20556;-64
2021/06/23 08:45:50;;;;;;;12.20;11.80;;;25.90;96.20;;;;;;3595965;39;20760;-64
2021/06/23 08:48:17;;;;;;;12.57;11.97;;;25.90;96.20;;;;;;3591119;39;21379;-64
2021/06/23 08:50:44;;;;;;;12.90;12.40;;;25.90;96.10;;;;;;3587974;39;20546;-64
2021/06/23 08:53:13;;;;;;;12.13;11.63;;;25.90;96.10;;;;;;3578564;39;20577;-64
2021/06/23 08:55:40;;;;;;;13.47;12.67;;;25.90;96.10;;;;;;3562155;39;20484;-64
2021/06/23 08:58:08;;;;;;;12.27;11.77;;;25.90;96.10;;;;;;3578472;39;20865;-64
2021/06/23 09:00:35;;;;;;;13.63;12.83;;;25.90;96.10;;;;;;3575730;39;20736;-65
2021/06/23 09:03:06;;;;;;;12.10;11.60;;;25.90;96.00;;;;;;3580790;39;21334;-65
2021/06/23 09:05:53;;;;;;;13.07;12.47;;;25.90;96.00;;;;;;3584043;39;20596;-64
2021/06/23 09:08:33;;;;;;;12.37;11.77;;;25.90;96.00;;;;;;3581054;39;20848;-65
2021/06/23 09:11:02;;;;;;;13.57;12.77;;;25.90;95.90;;;;;;3571530;39;20480;-65
2021/06/23 09:13:29;;;;;;;13.43;12.70;;;25.90;95.90;;;;;;3571523;39;20484;-65
2021/06/23 09:15:59;;;;;;;12.23;11.63;;;25.90;95.90;;;;;;3575916;39;20739;-64
2021/06/23 09:18:29;;;;;;;12.90;12.33;;;25.90;95.40;;;;;;3565306;39;20845;-64
2021/06/23 09:20:58;;;;;;;12.40;11.80;;;25.90;94.60;;;;;;3566306;39;20524;-64
2021/06/23 09:23:43;;;;;;;10.63;10.33;;;25.90;94.70;;;;;;3566148;39;20504;-64
2021/06/23 09:26:22;;;;;;;11.03;10.63;;;25.90;93.00;;;;;;3559803;39;20492;-63
2021/06/23 09:29:05;;;;;;;10.40;10.10;;;25.80;93.20;;;;;;3567596;39;20556;-64
2021/06/23 09:31:52;;;;;;;10.30;9.83;;;25.70;91.90;;;;;;3566137;39;20720;-64
2021/06/23 09:34:25;;;;;;;11.57;11.17;;;25.70;92.20;;;;;;3569497;39;21132;-64
2021/06/23 09:36:53;;;;;;;10.87;10.47;;;25.70;92.40;;;;;;3566503;39;20997;-64
2021/06/23 09:39:21;;;;;;;13.10;12.33;;;25.70;92.10;;;;;;3567268;39;21031;-64
2021/06/23 09:41:57;;;;;;;12.33;11.70;;;25.70;92.70;;;;;;3568628;39;20673;-64
2021/06/23 09:44:26;;;;;;;13.17;12.23;;;25.80;92.80;;;;;;3581353;39;20781;-64
2021/06/23 09:46:54;;;;;;;11.47;10.97;;;25.80;93.10;;;;;;3588305;39;20506;-63
2021/06/23 09:49:22;;;;;;;12.50;11.90;;;25.80;92.50;;;;;;3587320;39;20483;-64
2021/06/23 09:51:53;;;;;;;11.50;10.90;;;25.70;91.60;;;;;;3590926;39;20467;-64
2021/06/23 09:54:21;;;;;;;11.43;10.83;;;25.70;92.10;;;;;;3570154;39;20503;-64
2021/06/23 09:56:49;;;;;;;10.80;10.40;;;25.80;92.50;;;;;;3583619;39;20504;-64
2021/06/23 09:59:33;;;;;;;10.63;9.93;;;25.70;91.90;;;;;;3591178;39;20499;-64
2021/06/23 10:02:00;;;;;;;12.10;11.70;;;25.80;92.20;;;;;;3590654;39;20478;-64
2021/06/23 10:04:34;;;;;;;12.80;11.93;;;25.80;92.40;;;;;;3587053;39;20835;-64
2021/06/23 10:07:04;;;;;;;13.33;12.50;;;25.80;92.60;;;;;;3579721;39;20687;-64
2021/06/23 10:09:32;;;;;;;12.40;11.70;;;25.80;92.80;;;;;;3591338;39;20495;-64
2021/06/23 10:12:01;;;;;;;12.40;11.90;;;25.90;92.90;;;;;;3589514;39;20494;-64
2021/06/23 10:14:30;;;;;;;12.87;12.17;;;25.90;93.10;;;;;;3593231;39;20922;-64
2021/06/23 10:17:01;;;;;;;13.10;12.50;;;25.90;93.20;;;;;;3591923;39;21105;-64
2021/06/23 10:19:28;;;;;;;12.13;11.73;;;25.90;93.30;;;;;;3589282;39;20478;-64
2021/06/23 10:22:00;;;;;;;11.90;11.40;;;25.90;93.50;;;;;;3591613;39;20539;-64
2021/06/23 10:24:30;;;;;;;12.67;12.17;;;25.90;93.50;;;;;;3592781;39;20490;-64
2021/06/23 10:26:59;;;;;;;11.60;11.20;;;25.90;93.40;;;;;;3585704;39;21175;-65
2021/06/23 10:29:29;;;;;;;11.87;11.20;;;25.90;93.40;;;;;;3588874;39;20547;-64
2021/06/23 10:31:59;;;;;;;12.30;11.80;;;25.90;93.50;;;;;;3585842;39;20719;-64
2021/06/23 10:34:27;;;;;;;12.00;11.60;;;25.90;93.40;;;;;;3591814;39;20479;-64
2021/06/23 10:36:56;;;;;;;11.10;10.70;;;25.90;93.20;;;;;;3594856;39;20510;-64
2021/06/23 10:39:24;;;;;;;11.67;11.23;;;25.90;93.10;;;;;;3585783;39;20471;-64
2021/06/23 10:41:59;;;;;;;12.20;11.80;;;25.90;93.20;;;;;;3583592;39;20511;-64
2021/06/23 10:44:28;;;;;;;13.13;12.23;;;25.90;93.20;;;;;;3586178;39;20589;-64
2021/06/23 10:46:56;;;;;;;11.07;10.67;;;25.90;93.20;;;;;;3593857;39;20507;-65
2021/06/23 10:49:45;;;;;;;10.90;10.60;;;25.90;93.20;;;;;;3594097;39;20483;-64
2021/06/23 10:52:42;;;;;;;10.60;10.20;;;25.90;92.40;;;;;;3593551;39;20483;-64
2021/06/23 10:55:37;;;;;;;11.90;11.50;;;25.90;92.10;;;;;;3593331;39;20571;-65
2021/06/23 10:58:08;;;;;;;11.10;10.60;;;25.90;91.90;;;;;;3593913;39;20865;-65
2021/06/23 11:00:36;;;;;;;11.03;10.73;;;25.90;91.70;;;;;;3594242;39;20499;-64
2021/06/23 11:03:07;;;;;;;11.60;11.20;;;25.90;91.70;;;;;;3590772;39;20490;-65
2021/06/23 11:05:41;;;;;;;11.10;10.50;;;25.90;91.50;;;;;;3590320;39;20535;-64
2021/06/23 11:08:47;;;;;;;11.13;10.83;;;25.80;91.30;;;;;;3586936;39;20482;-64
2021/06/23 11:11:37;;;;;;;10.60;10.30;;;25.90;91.40;;;;;;3582872;39;20491;-64
2021/06/23 11:14:18;;;;;;;11.10;10.60;;;25.80;90.80;;;;;;3583755;39;20510;-64
2021/06/23 11:16:45;;;;;;;11.30;10.90;;;25.80;90.90;;;;;;3574163;39;20499;-65
2021/06/23 11:19:13;;;;;;;11.50;11.10;;;25.80;91.10;;;;;;3583311;39;20486;-64
2021/06/23 11:21:41;;;;;;;11.10;10.80;;;25.90;91.30;;;;;;3583393;39;20482;-64
2021/06/23 11:24:14;;;;;;;11.57;11.17;;;25.90;90.80;;;;;;3585831;39;21376;-65
2021/06/23 11:26:57;;;;;;;11.80;11.30;;;25.90;91.00;;;;;;3575057;39;20479;-65
2021/06/23 11:29:39;;;;;;;11.03;10.63;;;25.90;91.10;;;;;;3582582;39;20483;-65
2021/06/23 11:32:11;;;;;;;11.73;11.33;;;25.80;90.90;;;;;;3562947;39;20487;-65
2021/06/23 11:35:00;;;;;;;10.67;10.37;;;25.80;90.30;;;;;;3583166;39;20487;-65
2021/06/23 11:37:31;;;;;;;10.27;9.97;;;25.80;90.30;;;;;;3580191;39;20976;-65
2021/06/23 11:40:19;;;;;;;11.43;10.93;;;25.80;89.90;;;;;;3569699;39;20473;-65
2021/06/23 11:42:47;;;;;;;10.80;10.50;;;25.80;89.80;;;;;;3580820;39;20502;-65
2021/06/23 11:45:18;;;;;;;10.60;10.30;;;25.80;90.00;;;;;;3585495;39;20540;-65
2021/06/23 11:47:45;;;;;;;11.30;10.70;;;25.80;90.10;;;;;;3584177;39;20487;-65
2021/06/23 11:50:12;;;;;;;10.50;10.20;;;25.80;90.10;;;;;;3581391;39;20814;-63
2021/06/23 11:52:40;;;;;;;10.20;9.90;;;25.90;90.20;;;;;;3571830;39;20475;-64
2021/06/23 11:55:11;;;;;;;10.70;10.30;;;25.90;90.30;;;;;;3582523;39;20534;-66
2021/06/23 11:57:40;;;;;;;10.93;10.63;;;25.80;90.30;;;;;;3586051;39;20510;-63
2021/06/23 12:00:10;;;;;;;10.60;10.30;;;25.80;90.40;;;;;;3596371;39;20512;-63
2021/06/23 12:02:41;;;;;;;10.50;10.20;;;25.80;90.40;;;;;;3594660;39;20503;-64
2021/06/23 12:05:11;;;;;;;10.70;10.30;;;25.80;90.60;;;;;;3597626;39;20487;-64
2021/06/23 12:07:42;;;;;;;10.70;10.30;;;25.90;90.70;;;;;;3593863;39;20487;-63
2021/06/23 12:10:14;;;;;;;10.87;10.37;;;26.00;91.10;;;;;;3594800;39;20538;-63
2021/06/23 12:12:45;;;;;;;10.47;10.07;;;26.00;90.80;;;;;;3586619;39;20574;-63
2021/06/23 12:15:17;;;;;;;10.83;10.43;;;26.00;90.60;;;;;;3596436;39;20987;-65
2021/06/23 12:17:46;;;;;;;11.00;10.60;;;26.00;90.70;;;;;;3586996;39;20608;-65
2021/06/23 12:20:15;;;;;;;10.63;10.33;;;26.00;90.30;;;;;;3585490;39;20522;-65
2021/06/23 12:22:42;;;;;;;10.67;10.37;;;26.00;90.20;;;;;;3578748;39;20491;-65
2021/06/23 12:25:11;;;;;;;11.10;10.70;;;26.00;90.20;;;;;;3587744;39;20484;-65
2021/06/23 12:27:39;;;;;;;11.27;10.77;;;26.00;90.30;;;;;;3577958;39;20531;-65
2021/06/23 12:30:08;;;;;;;11.63;11.03;;;26.10;90.50;;;;;;3587675;39;20484;-65
2021/06/23 12:32:36;;;;;;;11.67;11.27;;;26.00;90.60;;;;;;3589405;39;20510;-65
2021/06/23 12:35:05;;;;;;;11.00;10.50;;;26.00;90.70;;;;;;3589362;39;20483;-65
2021/06/23 12:37:33;;;;;;;11.27;10.70;;;26.00;90.50;;;;;;3586475;39;20476;-65
2021/06/23 12:40:00;;;;;;;11.03;10.63;;;26.00;90.10;;;;;;3587095;39;20656;-65
2021/06/23 12:42:27;;;;;;;11.10;10.70;;;25.90;90.20;;;;;;3586710;39;20585;-65
2021/06/23 12:44:54;;;;;;;10.73;10.37;;;25.90;90.10;;;;;;3592852;39;20487;-64
2021/06/23 12:47:21;;;;;;;10.67;10.30;;;25.90;90.20;;;;;;3596858;39;20752;-64
2021/06/23 12:49:49;;;;;;;11.20;10.80;;;25.90;90.30;;;;;;3596018;39;20618;-65
2021/06/23 12:52:17;;;;;;;11.73;11.33;;;26.00;90.40;;;;;;3595677;39;20960;-65
2021/06/23 12:54:44;;;;;;;11.90;11.50;;;26.00;90.50;;;;;;3596182;39;20479;-64
2021/06/23 12:57:13;;;;;;;11.60;11.10;;;26.00;90.70;;;;;;3597938;39;20491;-64
2021/06/23 12:59:40;;;;;;;11.37;10.97;;;26.00;90.80;;;;;;3596183;39;20536;-64
2021/06/23 13:02:08;;;;;;;11.47;11.07;;;26.00;90.80;;;;;;3583334;39;20484;-64
2021/06/23 13:04:35;;;;;;;12.20;11.60;;;26.00;90.90;;;;;;3582468;39;20486;-64